createdAt,value
2023-05-04T00:01:37.858Z,10.55
2023-05-04T00:04:09.049Z,10.47
2023-05-04T00:06:37.468Z,10.52
2023-05-04T00:09:09.709Z,10.47
2023-05-04T00:11:40.998Z,10.51
2023-05-04T00:14:09.811Z,10.47
2023-05-04T00:16:38.643Z,10.33
2023-05-04T00:19:07.365Z,10.28
2023-05-04T00:21:36.031Z,10.29
2023-05-04T00:24:04.847Z,10.19
2023-05-04T00:26:35.074Z,10.19
2023-05-04T00:29:06.914Z,10.16
2023-05-04T00:31:35.971Z,10.14
2023-05-04T00:34:04.634Z,10.18
2023-05-04T00:36:33.295Z,10.15
2023-05-04T00:39:02.215Z,10.09
2023-05-04T00:41:32.528Z,10.07
2023-05-04T00:44:02.986Z,10.08
2023-05-04T00:46:33.323Z,10.12
2023-05-04T00:49:06.272Z,10.14
2023-05-04T00:51:36.040Z,10.22
2023-05-04T00:54:06.292Z,10.29
2023-05-04T00:56:37.270Z,10.35
2023-05-04T00:59:05.925Z,10.35
2023-05-04T01:01:36.313Z,10.33
2023-05-04T01:04:05.299Z,10.43
2023-05-04T01:06:51.651Z,10.40
2023-05-04T01:09:37.939Z,10.38
2023-05-04T01:12:15.522Z,10.45
2023-05-04T01:14:45.273Z,10.44
2023-05-04T01:17:14.126Z,10.45
2023-05-04T01:19:42.906Z,10.37
2023-05-04T01:22:11.695Z,10.28
2023-05-04T01:24:40.527Z,10.21
2023-05-04T01:27:29.061Z,10.23
2023-05-04T01:30:16.086Z,10.12
2023-05-04T01:32:49.113Z,9.98
2023-05-04T01:35:17.964Z,9.98
2023-05-04T01:37:49.578Z,10.00
2023-05-04T01:40:19.064Z,9.92
2023-05-04T01:42:47.938Z,9.98
2023-05-04T01:45:16.760Z,9.91
2023-05-04T01:47:48.180Z,9.87
2023-05-04T01:50:21.354Z,9.87
2023-05-04T01:52:47.354Z,9.85
2023-05-04T01:55:17.058Z,9.87
2023-05-04T01:57:45.864Z,9.87
2023-05-04T02:00:16.424Z,9.91
2023-05-04T02:02:45.436Z,9.84
2023-05-04T02:05:16.138Z,9.77
2023-05-04T02:07:47.871Z,9.83
2023-05-04T02:10:16.606Z,9.77
2023-05-04T02:12:46.631Z,9.70
2023-05-04T02:15:15.435Z,9.66
2023-05-04T02:17:44.272Z,9.68
2023-05-04T02:20:13.374Z,9.74
2023-05-04T02:22:42.304Z,9.73
2023-05-04T02:25:10.980Z,9.74
2023-05-04T02:27:39.722Z,9.75
2023-05-04T02:30:12.621Z,9.84
2023-05-04T02:32:41.556Z,9.90
2023-05-04T02:35:10.326Z,9.84
2023-05-04T02:37:38.975Z,9.87
2023-05-04T02:40:08.973Z,9.92
2023-05-04T02:42:37.615Z,9.92
2023-05-04T02:45:08.616Z,9.93
2023-05-04T02:47:37.722Z,9.89
2023-05-04T02:50:08.811Z,9.85
2023-05-04T02:52:37.720Z,9.87
2023-05-04T02:55:06.785Z,9.82
2023-05-04T02:57:35.485Z,9.87
2023-05-04T03:00:06.227Z,9.69
2023-05-04T03:02:35.734Z,9.85
2023-05-04T03:05:04.490Z,9.75
2023-05-04T03:07:33.163Z,9.79
2023-05-04T03:10:03.467Z,9.78
2023-05-04T03:12:32.085Z,9.82
2023-05-04T03:15:00.920Z,9.78
2023-05-04T03:17:29.607Z,9.67
2023-05-04T03:20:01.908Z,9.50
2023-05-04T03:22:30.698Z,9.44
2023-05-04T03:24:59.359Z,9.12
2023-05-04T03:27:28.259Z,9.44
2023-05-04T03:29:57.052Z,9.57
2023-05-04T03:32:27.588Z,9.40
2023-05-04T03:34:56.324Z,9.38
2023-05-04T03:37:25.468Z,9.52
2023-05-04T03:39:54.124Z,9.46
2023-05-04T03:42:22.754Z,9.46
2023-05-04T03:44:54.321Z,9.35
2023-05-04T03:47:22.907Z,9.32
2023-05-04T03:49:52.011Z,9.43
2023-05-04T03:52:22.361Z,9.40
2023-05-04T03:54:50.968Z,9.43
2023-05-04T03:57:19.553Z,9.52
2023-05-04T03:59:49.759Z,9.51
2023-05-04T04:02:18.841Z,9.59
2023-05-04T04:04:49.693Z,9.72
2023-05-04T04:07:19.485Z,9.85
2023-05-04T04:09:50.171Z,9.92
2023-05-04T04:12:20.382Z,9.98
2023-05-04T04:14:51.182Z,10.03
2023-05-04T04:17:20.255Z,10.09
2023-05-04T04:19:50.865Z,10.18
2023-05-04T04:25:24.639Z,10.41
2023-05-04T04:28:20.062Z,10.42
2023-05-04T04:31:21.267Z,10.32
2023-05-04T04:33:54.644Z,10.43
2023-05-04T04:36:28.141Z,10.21
2023-05-04T04:39:20.738Z,10.29
2023-05-04T04:41:49.686Z,10.26
2023-05-04T04:44:24.136Z,10.28
2023-05-04T04:47:06.128Z,10.35
2023-05-04T04:49:29.109Z,10.20
2023-05-04T04:51:59.747Z,10.19
2023-05-04T04:54:34.089Z,10.17
2023-05-04T04:57:04.219Z,10.11
2023-05-04T04:59:38.267Z,10.19
2023-05-04T05:02:09.928Z,10.13
2023-05-04T05:04:45.413Z,10.18
2023-05-04T05:07:14.399Z,10.14
2023-05-04T05:09:43.313Z,10.13
2023-05-04T05:12:22.354Z,10.17
2023-05-04T05:14:54.979Z,10.14
2023-05-04T05:17:24.021Z,10.29
2023-05-04T05:20:02.396Z,10.10
2023-05-04T05:22:33.072Z,10.33
2023-05-04T05:25:05.454Z,10.39
2023-05-04T05:27:35.152Z,10.39
2023-05-04T05:30:06.400Z,10.53
2023-05-04T05:32:37.105Z,10.45
2023-05-04T05:35:10.338Z,10.55
2023-05-04T05:40:36.282Z,10.64
2023-05-04T05:43:14.869Z,10.52
2023-05-04T05:45:43.653Z,10.76
2023-05-04T05:48:12.612Z,10.46
2023-05-04T05:50:44.731Z,10.77
2023-05-04T05:53:13.584Z,10.91
2023-05-04T05:55:55.272Z,11.12
2023-05-04T05:58:41.200Z,10.95
2023-05-04T06:00:59.300Z,11.14
2023-05-04T06:03:39.808Z,11.31
2023-05-04T06:06:09.410Z,11.60
2023-05-04T06:12:37.695Z,11.71
2023-05-04T06:15:12.355Z,11.68
2023-05-04T06:17:43.933Z,11.79
2023-05-04T06:23:14.815Z,11.94
2023-05-04T06:25:46.631Z,12.13
2023-05-04T06:28:16.350Z,12.70
2023-05-04T06:30:46.552Z,12.61
2023-05-04T06:33:23.001Z,12.28
2023-05-04T06:35:53.210Z,12.72
2023-05-04T06:42:09.371Z,13.08
2023-05-04T06:44:38.583Z,12.91
2023-05-04T06:47:10.440Z,13.03
2023-05-04T06:49:43.264Z,13.38
2023-05-04T06:52:20.962Z,13.48
2023-05-04T06:54:49.893Z,13.55
2023-05-04T06:57:18.898Z,13.42
2023-05-04T06:59:47.739Z,13.14
2023-05-04T07:02:17.828Z,13.12
2023-05-04T07:04:46.532Z,13.24
2023-05-04T07:07:16.787Z,13.61
2023-05-04T07:09:50.507Z,13.30
2023-05-04T07:12:19.337Z,12.91
2023-05-04T07:14:47.973Z,13.13
2023-05-04T07:17:18.036Z,13.04
2023-05-04T07:19:46.953Z,13.00
2023-05-04T07:22:15.638Z,13.14
2023-05-04T07:24:44.458Z,13.13
2023-05-04T07:27:13.251Z,12.92
2023-05-04T07:29:42.021Z,13.08
2023-05-04T07:32:11.349Z,12.82
2023-05-04T07:34:45.815Z,12.20
2023-05-04T07:37:12.199Z,12.27
2023-05-04T07:39:41.122Z,12.32
2023-05-04T07:42:12.653Z,12.37
2023-05-04T07:44:41.989Z,12.45
2023-05-04T07:47:10.954Z,12.43
2023-05-04T07:49:39.771Z,12.54
2023-05-04T07:52:08.433Z,12.17
2023-05-04T07:54:39.653Z,11.93
2023-05-04T07:57:15.789Z,12.14
2023-05-04T07:59:44.710Z,12.21
2023-05-04T08:02:13.809Z,12.32
2023-05-04T08:04:42.730Z,12.21
2023-05-04T08:07:11.692Z,12.08
2023-05-04T08:09:40.680Z,12.18
2023-05-04T08:12:15.394Z,12.36
2023-05-04T08:14:50.375Z,12.19
2023-05-04T08:17:30.072Z,11.95
2023-05-04T08:20:08.091Z,12.22
2023-05-04T08:22:38.810Z,12.45
2023-05-04T08:25:09.753Z,12.50
2023-05-04T08:27:41.769Z,12.83
2023-05-04T08:30:11.289Z,12.52
2023-05-04T08:32:40.485Z,12.80
2023-05-04T08:35:09.575Z,13.09
2023-05-04T08:37:38.419Z,13.18
2023-05-04T08:40:08.300Z,13.18
2023-05-04T08:42:38.130Z,13.23
2023-05-04T08:45:09.240Z,13.42
2023-05-04T08:47:43.875Z,13.89
2023-05-04T08:50:13.737Z,14.00
2023-05-04T08:52:47.714Z,14.07
2023-05-04T08:55:17.666Z,14.43
2023-05-04T08:57:47.612Z,14.73
2023-05-04T09:00:19.490Z,15.11
2023-05-04T09:02:50.210Z,14.72
2023-05-04T09:05:21.497Z,15.37
2023-05-04T09:07:51.880Z,16.54
2023-05-04T09:10:21.415Z,16.32
2023-05-04T09:12:50.738Z,16.63
2023-05-04T09:15:22.070Z,15.87
2023-05-04T09:18:07.717Z,15.85
2023-05-04T09:20:48.666Z,15.80
2023-05-04T09:23:19.318Z,15.90
2023-05-04T09:25:59.167Z,15.60
2023-05-04T09:28:39.605Z,15.52
2023-05-04T09:31:08.973Z,14.75
2023-05-04T09:33:41.128Z,15.24
2023-05-04T09:36:22.314Z,16.12
2023-05-04T09:38:51.332Z,15.77
2023-05-04T09:41:23.172Z,16.05
2023-05-04T09:44:09.957Z,16.18
2023-05-04T09:46:30.628Z,16.18
2023-05-04T09:49:00.885Z,16.01
2023-05-04T09:51:30.128Z,16.03
2023-05-04T09:54:03.600Z,15.98
2023-05-04T10:00:01.980Z,15.69
2023-05-04T10:02:36.754Z,16.46
2023-05-04T10:05:10.457Z,16.75
2023-05-04T10:07:41.459Z,16.39
2023-05-04T10:10:11.600Z,16.64
2023-05-04T10:12:40.656Z,16.53
2023-05-04T10:15:11.884Z,16.21
2023-05-04T10:17:52.848Z,16.31
2023-05-04T10:20:44.209Z,16.21
2023-05-04T10:29:55.260Z,16.56
2023-05-04T10:32:24.694Z,17.10
2023-05-04T10:34:57.241Z,17.25
2023-05-04T10:37:26.259Z,17.53
2023-05-04T10:39:55.727Z,17.29
2023-05-04T10:42:24.528Z,16.88
2023-05-04T10:44:55.766Z,16.52
2023-05-04T10:47:33.126Z,17.56
2023-05-04T10:50:07.684Z,17.71
2023-05-04T10:52:50.054Z,17.50
2023-05-04T10:55:19.486Z,17.07
2023-05-04T10:57:59.029Z,16.89
2023-05-04T11:00:34.094Z,16.82
2023-05-04T11:03:07.921Z,16.48
2023-05-04T11:05:57.599Z,16.57
2023-05-04T11:08:29.329Z,16.15
2023-05-04T11:11:08.605Z,15.82
2023-05-04T11:13:44.381Z,15.87
2023-05-04T11:16:12.920Z,15.78
2023-05-04T11:18:59.093Z,15.52
2023-05-04T11:21:30.754Z,15.18
2023-05-04T11:24:04.823Z,15.24
2023-05-04T11:26:37.100Z,15.07
2023-05-04T11:29:14.121Z,14.79
2023-05-04T11:31:44.810Z,15.05
2023-05-04T11:34:17.060Z,14.98
2023-05-04T11:36:46.045Z,14.99
2023-05-04T11:39:15.632Z,14.87
2023-05-04T11:41:47.098Z,14.77
2023-05-04T11:44:19.964Z,14.88
2023-05-04T11:46:52.982Z,15.22
2023-05-04T11:49:21.988Z,15.33
2023-05-04T11:51:50.898Z,15.38
2023-05-04T11:54:23.343Z,15.22
2023-05-04T11:56:52.243Z,15.60
2023-05-04T11:59:21.150Z,15.97
2023-05-04T12:01:50.330Z,16.40
2023-05-04T12:04:19.223Z,16.60
2023-05-04T12:06:48.180Z,16.30
2023-05-04T12:09:18.390Z,16.73
2023-05-04T12:11:50.136Z,16.97
2023-05-04T12:14:22.080Z,16.89
2023-05-04T12:16:59.487Z,16.82
2023-05-04T12:19:28.363Z,16.89
2023-05-04T12:21:58.878Z,16.88
2023-05-04T12:24:29.043Z,16.67
2023-05-04T12:26:57.689Z,16.54
2023-05-04T12:29:26.611Z,16.71
2023-05-04T12:31:55.409Z,16.79
2023-05-04T12:34:25.364Z,16.82
2023-05-04T12:36:54.411Z,16.67
2023-05-04T12:39:30.104Z,16.91
2023-05-04T12:42:00.100Z,16.68
2023-05-04T12:44:29.802Z,17.21
2023-05-04T12:46:59.017Z,17.08
2023-05-04T12:49:27.870Z,17.09
2023-05-04T12:51:59.831Z,17.18
2023-05-04T12:54:29.940Z,16.55
2023-05-04T12:57:12.935Z,16.80
2023-05-04T13:06:26.730Z,15.54
2023-05-04T13:08:55.617Z,15.47
2023-05-04T13:11:26.125Z,15.08
2023-05-04T13:13:56.617Z,14.92
2023-05-04T13:16:34.189Z,14.95
2023-05-04T13:19:05.284Z,14.83
2023-05-04T13:21:35.976Z,14.99
2023-05-04T13:24:04.901Z,14.66
2023-05-04T13:26:34.215Z,15.11
2023-05-04T13:29:06.353Z,15.16
2023-05-04T13:31:35.410Z,15.32
2023-05-04T13:34:05.530Z,15.38
2023-05-04T13:36:34.236Z,15.62
2023-05-04T13:39:04.029Z,15.49
2023-05-04T13:41:32.996Z,15.45
2023-05-04T13:47:30.712Z,14.75
2023-05-04T13:49:59.725Z,14.66
2023-05-04T13:59:09.834Z,14.77
2023-05-04T14:01:38.731Z,14.66
2023-05-04T14:04:07.608Z,14.45
2023-05-04T14:06:38.100Z,14.43
2023-05-04T14:09:07.151Z,14.37
2023-05-04T14:11:36.078Z,14.33
2023-05-04T14:14:05.191Z,14.54
2023-05-04T14:16:37.688Z,14.53
2023-05-04T14:19:13.647Z,14.62
2023-05-04T14:21:42.608Z,14.60
2023-05-04T14:24:13.297Z,14.38
2023-05-04T14:26:42.107Z,14.36
2023-05-04T14:29:11.110Z,14.57
2023-05-04T14:31:42.337Z,14.66
2023-05-04T14:34:14.203Z,14.42
2023-05-04T14:36:47.568Z,14.65
2023-05-04T14:40:34.015Z,14.97
2023-05-04T14:48:51.534Z,14.41
2023-05-04T14:51:31.086Z,14.42
2023-05-04T14:54:01.837Z,14.55
2023-05-04T14:56:30.773Z,14.47
2023-05-04T14:59:05.599Z,15.05
2023-05-04T15:01:34.469Z,15.25
2023-05-04T15:04:04.791Z,14.87
2023-05-04T15:06:34.191Z,14.49
2023-05-04T15:09:04.696Z,14.81
2023-05-04T15:11:36.795Z,14.77
2023-05-04T15:14:05.804Z,14.35
2023-05-04T15:16:38.483Z,14.40
2023-05-04T15:19:07.870Z,14.52
2023-05-04T15:21:36.643Z,14.49
2023-05-04T15:24:05.791Z,14.14
2023-05-04T15:26:34.810Z,14.50
2023-05-04T15:29:10.110Z,14.51
2023-05-04T15:31:43.210Z,14.40
2023-05-04T15:34:12.051Z,14.49
2023-05-04T15:36:43.985Z,14.41
2023-05-04T15:39:14.404Z,14.21
2023-05-04T15:41:43.434Z,14.22
2023-05-04T15:44:15.200Z,14.03
2023-05-04T15:46:51.675Z,13.93
2023-05-04T15:49:20.723Z,14.05
2023-05-04T15:51:49.958Z,14.07
2023-05-04T15:57:08.259Z,14.04
2023-05-04T15:59:36.843Z,13.98
2023-05-04T16:02:06.252Z,13.85
2023-05-04T16:04:37.709Z,13.95
2023-05-04T16:07:06.705Z,13.95
2023-05-04T16:09:35.891Z,13.85
2023-05-04T16:12:08.107Z,13.63
2023-05-04T16:14:40.169Z,13.43
2023-05-04T16:17:09.893Z,13.27
2023-05-04T16:25:50.132Z,13.09
2023-05-04T16:28:19.118Z,12.88
2023-05-04T16:30:52.206Z,12.75
2023-05-04T16:33:21.111Z,12.65
2023-05-04T16:35:51.756Z,12.61
2023-05-04T16:38:30.794Z,12.57
2023-05-04T16:40:59.771Z,12.50
2023-05-04T16:43:33.452Z,12.34
2023-05-04T16:46:02.922Z,12.28
2023-05-04T16:48:32.294Z,12.26
2023-05-04T16:51:02.887Z,12.16
2023-05-04T16:53:34.400Z,12.14
2023-05-04T16:56:04.667Z,12.04
2023-05-04T16:58:34.009Z,11.76
2023-05-04T17:01:15.925Z,11.82
2023-05-04T17:03:36.445Z,11.79
2023-05-04T17:06:05.500Z,11.77
2023-05-04T17:08:36.476Z,11.81
2023-05-04T17:11:05.721Z,11.83
2023-05-04T17:20:35.184Z,11.58
2023-05-04T17:23:04.152Z,11.68
2023-05-04T17:25:37.381Z,11.72
2023-05-04T17:28:08.000Z,11.44
2023-05-04T17:30:37.453Z,11.24
2023-05-04T17:33:09.325Z,11.13
2023-05-04T17:35:43.427Z,11.10
2023-05-04T17:38:12.048Z,11.01
2023-05-04T17:40:42.697Z,10.96
2023-05-04T17:43:33.375Z,10.50
2023-05-04T17:46:06.917Z,10.64
2023-05-04T17:48:39.264Z,10.55
2023-05-04T17:51:25.991Z,10.55
2023-05-04T17:57:30.690Z,10.72
2023-05-04T17:59:59.972Z,10.76
2023-05-04T18:06:12.328Z,10.90
2023-05-04T18:08:41.304Z,10.90
2023-05-04T18:11:10.340Z,10.99
2023-05-04T18:14:52.957Z,10.93
2023-05-04T18:16:39.446Z,10.88
2023-05-04T18:19:08.360Z,10.79
2023-05-04T18:25:20.136Z,10.77
2023-05-04T18:27:52.350Z,10.65
2023-05-04T18:30:21.166Z,10.57
2023-05-04T18:32:53.085Z,10.42
2023-05-04T18:35:22.570Z,10.24
2023-05-04T18:41:19.872Z,10.15
2023-05-04T18:43:48.918Z,10.02
2023-05-04T18:46:19.311Z,9.93
2023-05-04T18:48:50.340Z,9.78
2023-05-04T18:54:38.824Z,9.38
2023-05-04T18:57:09.010Z,9.81
2023-05-04T18:59:48.804Z,9.69
2023-05-04T19:02:21.285Z,9.73
2023-05-04T19:04:49.996Z,9.70
2023-05-04T19:07:26.369Z,9.65
2023-05-04T19:09:55.533Z,9.62
2023-05-04T19:12:24.127Z,9.50
2023-05-04T19:14:53.023Z,9.45
2023-05-04T19:17:26.217Z,9.41
2023-05-04T19:19:59.487Z,9.35
2023-05-04T19:22:29.563Z,9.36
2023-05-04T19:24:58.437Z,9.29
2023-05-04T19:27:27.320Z,9.34
2023-05-04T19:30:04.192Z,9.31
2023-05-04T19:32:33.084Z,9.32
2023-05-04T19:35:06.098Z,9.23
2023-05-04T19:37:36.504Z,9.30
2023-05-04T19:40:10.640Z,9.21
2023-05-04T19:46:25.499Z,9.19
2023-05-04T19:48:54.208Z,9.15
2023-05-04T19:51:22.993Z,9.14
2023-05-04T19:53:52.601Z,9.50
2023-05-04T19:56:35.803Z,9.67
2023-05-04T19:59:06.724Z,9.74
2023-05-04T20:01:34.904Z,9.92
2023-05-04T20:04:08.491Z,10.15
2023-05-04T20:06:55.127Z,10.14
2023-05-04T20:09:23.577Z,10.15
2023-05-04T20:11:52.400Z,10.18
2023-05-04T20:14:21.171Z,10.04
2023-05-04T20:16:50.380Z,10.15
2023-05-04T20:19:20.829Z,10.21
2023-05-04T20:21:51.161Z,10.21
2023-05-04T20:24:20.286Z,10.24
2023-05-04T20:26:52.314Z,10.27
2023-05-04T20:29:21.174Z,10.29
2023-05-04T20:31:52.597Z,10.21
2023-05-04T20:34:21.530Z,10.04
2023-05-04T20:36:50.314Z,10.13
2023-05-04T20:39:19.955Z,10.08
2023-05-04T20:41:50.746Z,10.14
2023-05-04T20:44:19.877Z,10.17
2023-05-04T20:46:48.670Z,10.11
2023-05-04T20:49:17.460Z,10.03
2023-05-04T20:51:48.877Z,9.93
2023-05-04T20:54:17.816Z,9.80
2023-05-04T20:56:49.080Z,9.70
2023-05-04T20:59:21.037Z,9.53
2023-05-04T21:01:51.497Z,9.42
2023-05-04T21:04:21.086Z,9.35
2023-05-04T21:06:50.161Z,9.28
2023-05-04T21:09:18.761Z,9.27
2023-05-04T21:11:47.465Z,9.24
2023-05-04T21:14:16.646Z,9.14
2023-05-04T21:16:45.268Z,9.14
2023-05-04T21:19:13.870Z,9.10
2023-05-04T21:21:42.750Z,9.17
2023-05-04T21:24:15.321Z,9.09
2023-05-04T21:26:46.117Z,9.08
2023-05-04T21:29:16.386Z,9.05
2023-05-04T21:31:50.991Z,9.10
2023-05-04T21:34:19.882Z,9.18
2023-05-04T21:36:58.414Z,9.22
2023-05-04T21:39:26.403Z,9.40
2023-05-04T21:41:55.472Z,9.53
2023-05-04T21:44:24.441Z,9.61
2023-05-04T21:46:55.970Z,9.72
2023-05-04T21:49:24.803Z,9.80
2023-05-04T21:51:53.522Z,9.92
2023-05-04T21:54:23.782Z,9.94
2023-05-04T21:56:56.589Z,9.93
2023-05-04T21:59:25.293Z,9.87
2023-05-04T22:01:54.077Z,9.89
2023-05-04T22:04:22.865Z,9.86
2023-05-04T22:06:51.790Z,9.87
2023-05-04T22:09:20.472Z,9.95
2023-05-04T22:11:49.635Z,10.00
2023-05-04T22:14:18.996Z,10.00
2023-05-04T22:16:49.370Z,10.21
2023-05-04T22:19:19.689Z,10.28
2023-05-04T22:21:48.388Z,10.15
2023-05-04T22:24:19.702Z,10.18
2023-05-04T22:26:50.212Z,10.22
2023-05-04T22:29:20.401Z,10.28
2023-05-04T22:31:49.050Z,10.20
2023-05-04T22:34:17.787Z,10.19
2023-05-04T22:36:46.868Z,10.29
2023-05-04T22:39:15.897Z,10.42
2023-05-04T22:41:44.529Z,10.39
2023-05-04T22:44:13.308Z,10.54
2023-05-04T22:46:41.923Z,10.31
2023-05-04T22:49:10.605Z,10.24
2023-05-04T22:51:39.204Z,10.31
2023-05-04T22:54:07.898Z,10.38
2023-05-04T22:56:37.068Z,10.23
2023-05-04T22:59:06.355Z,9.94
2023-05-04T23:01:35.073Z,10.18
2023-05-04T23:04:04.317Z,10.22
2023-05-04T23:06:33.941Z,10.29
2023-05-04T23:09:05.794Z,10.37
2023-05-04T23:11:34.591Z,10.53
2023-05-04T23:14:03.200Z,10.63
2023-05-04T23:16:32.275Z,10.62
2023-05-04T23:19:01.130Z,10.74
2023-05-04T23:21:29.857Z,10.59
2023-05-04T23:23:58.688Z,10.46
2023-05-04T23:26:27.458Z,10.48
2023-05-04T23:28:57.706Z,10.68
2023-05-04T23:31:26.552Z,10.57
2023-05-04T23:33:55.437Z,10.58
2023-05-04T23:36:24.056Z,10.69
2023-05-04T23:38:52.716Z,10.62
2023-05-04T23:41:21.340Z,10.68
2023-05-04T23:43:49.978Z,10.78
2023-05-04T23:46:18.851Z,10.67
2023-05-04T23:48:47.422Z,10.60
2023-05-04T23:51:16.085Z,10.45
2023-05-04T23:53:44.800Z,10.31
2023-05-04T23:56:14.577Z,10.28
2023-05-04T23:58:43.657Z,10.22
